SESA/SNC METAR and TAF weather

Enter ICAO airport designator
Station Type Date Time Source
SESA METAR 2019/04/18 15:00 UTC NOAA

SESA 181500Z 27006KT 9999 BKN033 BKN100 26/23 Q1011


Station Type Date Time Source
SESA Decoded METAR 2019/04/18 15:00 UTC NOAA

Salinas / General Ulpiano Paez, Ecuador (SESA) 02-12S 080-59W 8M
Apr 18, 2019 - 11:00 AM EDT / 2019.04.18 1500 UTC
Wind: from the W (270 degrees) at 7 MPH (6 KT):0
Visibility: greater than 7 mile(s):0
Sky conditions: mostly cloudy
Temperature: 78 F (26 C)
Dew Point: 73 F (23 C)
Relative Humidity: 83%
Pressure (altimeter): 29.85 in. Hg (1011 hPa)
ob: SESA 181500Z 27006KT 9999 BKN033 BKN100 26/23 Q1011
cycle: 15

Station Type Date Time Source
SESA TAF UTC NOAA

Error!

Example: see airport list